createdAt,value
2023-09-24T00:00:22.354Z,72.90
2023-09-24T00:03:27.684Z,73.71
2023-09-24T00:06:30.284Z,72.72
2023-09-24T00:09:32.725Z,72.86
2023-09-24T00:12:35.090Z,71.53
2023-09-24T00:15:37.471Z,72.05
2023-09-24T00:18:40.080Z,71.98
2023-09-24T00:21:42.475Z,73.29
2023-09-24T00:24:45.037Z,75.04
2023-09-24T00:27:47.478Z,73.90
2023-09-24T00:30:52.003Z,71.60
2023-09-24T00:33:54.629Z,69.84
2023-09-24T00:36:59.333Z,70.79
2023-09-24T00:40:02.245Z,70.91
2023-09-24T00:43:04.964Z,71.09
2023-09-24T00:46:11.450Z,70.22
2023-09-24T00:49:16.929Z,69.77
2023-09-24T00:52:19.332Z,70.30
2023-09-24T00:55:22.342Z,69.60
2023-09-24T00:58:27.279Z,69.33
2023-09-24T01:01:30.936Z,70.64
2023-09-24T01:04:34.744Z,70.59
2023-09-24T01:07:37.912Z,70.92
2023-09-24T01:10:40.984Z,68.86
2023-09-24T01:13:44.942Z,72.40
2023-09-24T01:16:48.480Z,70.93
2023-09-24T01:19:54.094Z,70.65
2023-09-24T01:22:56.620Z,70.48
2023-09-24T01:25:59.089Z,71.88
2023-09-24T01:29:01.501Z,71.54
2023-09-24T01:32:06.105Z,72.73
2023-09-24T01:35:12.946Z,71.52
2023-09-24T01:38:15.537Z,73.40
2023-09-24T01:41:17.929Z,71.97
2023-09-24T01:44:22.773Z,71.24
2023-09-24T01:47:25.884Z,70.95
2023-09-24T01:50:31.082Z,71.08
2023-09-24T01:53:34.713Z,71.80
2023-09-24T01:56:37.587Z,71.87
2023-09-24T01:59:39.939Z,71.65
2023-09-24T02:02:44.057Z,71.29
2023-09-24T02:05:47.478Z,71.10
2023-09-24T02:08:49.944Z,72.85
2023-09-24T02:11:55.668Z,71.88
2023-09-24T02:14:58.229Z,72.21
2023-09-24T02:18:01.476Z,73.08
2023-09-24T02:21:08.654Z,73.89
2023-09-24T02:24:11.787Z,72.17
2023-09-24T02:27:14.240Z,71.45
2023-09-24T02:30:17.308Z,71.64
2023-09-24T02:33:20.140Z,72.71
2023-09-24T02:36:22.594Z,74.01
2023-09-24T02:39:24.909Z,71.42
2023-09-24T02:42:28.689Z,72.64
2023-09-24T02:45:31.765Z,71.93
2023-09-24T02:48:34.803Z,72.06
2023-09-24T02:51:37.505Z,73.44
2023-09-24T02:54:40.378Z,73.81
2023-09-24T02:57:47.826Z,73.98
2023-09-24T03:00:52.406Z,73.14
2023-09-24T03:03:55.202Z,73.52
2023-09-24T03:06:57.670Z,73.43
2023-09-24T03:10:00.184Z,72.95
2023-09-24T03:13:04.121Z,74.33
2023-09-24T03:16:07.640Z,74.45
2023-09-24T03:19:10.636Z,73.20
2023-09-24T03:22:13.104Z,73.58
2023-09-24T03:25:22.744Z,72.70
2023-09-24T03:28:25.348Z,73.68
2023-09-24T03:31:27.797Z,73.56
2023-09-24T03:34:30.100Z,74.74
2023-09-24T03:37:32.953Z,75.64
2023-09-24T03:40:36.013Z,74.83
2023-09-24T03:43:38.640Z,74.26
2023-09-24T03:46:41.134Z,74.33
2023-09-24T03:49:44.026Z,73.16
2023-09-24T03:52:51.188Z,73.86
2023-09-24T03:55:54.743Z,76.49
2023-09-24T03:58:57.169Z,73.50
2023-09-24T04:01:59.525Z,74.76
2023-09-24T04:05:01.875Z,73.92
2023-09-24T04:08:07.340Z,74.22
2023-09-24T04:11:13.620Z,74.15
2023-09-24T04:14:16.217Z,73.62
2023-09-24T04:17:19.157Z,74.26
2023-09-24T04:20:22.450Z,74.65
2023-09-24T04:23:25.774Z,74.50
2023-09-24T04:26:28.323Z,75.60
2023-09-24T04:29:30.737Z,75.61
2023-09-24T04:32:33.129Z,74.42
2023-09-24T04:35:35.567Z,75.18
2023-09-24T04:38:38.758Z,76.45
2023-09-24T04:41:41.658Z,74.93
2023-09-24T04:44:44.092Z,75.48
2023-09-24T04:47:47.405Z,75.15
2023-09-24T04:50:50.149Z,75.54
2023-09-24T04:53:53.855Z,74.63
2023-09-24T04:56:56.344Z,76.40
2023-09-24T04:59:58.688Z,76.26
2023-09-24T05:03:01.016Z,76.60
2023-09-24T05:06:06.744Z,77.26
2023-09-24T05:09:09.642Z,76.91
2023-09-24T05:12:13.998Z,76.30
2023-09-24T05:15:16.362Z,76.37
2023-09-24T05:18:20.390Z,76.79
2023-09-24T05:21:24.040Z,76.33
2023-09-24T05:24:26.413Z,75.46
2023-09-24T05:27:30.792Z,77.18
2023-09-24T05:30:33.240Z,75.55
2023-09-24T05:33:35.896Z,77.32
2023-09-24T05:36:38.501Z,76.63
2023-09-24T05:39:40.918Z,76.98
2023-09-24T05:42:43.719Z,76.24
2023-09-24T05:45:50.408Z,75.79
2023-09-24T05:48:56.842Z,76.59
2023-09-24T05:51:59.176Z,75.93
2023-09-24T05:55:09.493Z,77.19
2023-09-24T05:58:21.679Z,76.31
2023-09-24T06:01:24.965Z,75.90
2023-09-24T06:04:27.855Z,77.83
2023-09-24T06:07:30.451Z,77.82
2023-09-24T06:10:33.282Z,76.86
2023-09-24T06:13:35.802Z,76.87
2023-09-24T06:16:38.506Z,77.49
2023-09-24T06:19:41.044Z,77.14
2023-09-24T06:22:44.803Z,77.17
2023-09-24T06:25:47.911Z,77.47
2023-09-24T06:29:04.171Z,77.18
2023-09-24T06:32:12.934Z,76.23
2023-09-24T06:35:15.459Z,77.54
2023-09-24T06:38:17.871Z,77.32
2023-09-24T06:41:20.302Z,76.04
2023-09-24T06:44:25.979Z,75.66
2023-09-24T06:47:29.632Z,76.55
2023-09-24T06:50:32.239Z,76.55
2023-09-24T06:53:43.455Z,76.26
2023-09-24T06:56:46.657Z,76.80
2023-09-24T06:59:49.293Z,77.50
2023-09-24T07:02:52.125Z,76.01
2023-09-24T07:05:55.432Z,76.92
2023-09-24T07:08:58.439Z,76.09
2023-09-24T07:12:00.934Z,76.60
2023-09-24T07:15:03.493Z,75.95
2023-09-24T07:18:06.011Z,77.23
2023-09-24T07:21:19.572Z,76.87
2023-09-24T07:24:26.254Z,76.32
2023-09-24T07:27:28.687Z,76.12
2023-09-24T07:30:34.817Z,76.21
2023-09-24T07:33:37.153Z,77.19
2023-09-24T07:36:51.857Z,76.95
2023-09-24T07:40:06.735Z,76.42
2023-09-24T07:43:09.904Z,77.35
2023-09-24T07:46:14.198Z,76.58
2023-09-24T07:49:16.985Z,76.23
2023-09-24T07:52:19.380Z,76.56
2023-09-24T07:55:21.726Z,78.16
2023-09-24T07:58:27.120Z,76.90
2023-09-24T08:01:29.562Z,76.30
2023-09-24T08:04:31.966Z,76.31
2023-09-24T08:07:37.634Z,75.77
2023-09-24T08:10:40.146Z,76.11
2023-09-24T08:13:42.773Z,74.49
2023-09-24T08:16:46.084Z,76.42
2023-09-24T08:19:48.555Z,77.20
2023-09-24T08:22:50.907Z,76.52
2023-09-24T08:25:53.393Z,75.59
2023-09-24T08:28:55.823Z,75.85
2023-09-24T08:31:58.470Z,75.32
2023-09-24T08:35:02.091Z,75.59
2023-09-24T08:38:05.109Z,75.59
2023-09-24T08:41:14.609Z,75.31
2023-09-24T08:44:18.947Z,75.30
2023-09-24T08:47:23.423Z,74.57
2023-09-24T08:50:26.322Z,74.94
2023-09-24T08:53:31.694Z,75.88
2023-09-24T08:56:34.160Z,76.26
2023-09-24T08:59:37.135Z,75.46
2023-09-24T09:02:43.112Z,75.47
2023-09-24T09:05:45.830Z,75.74
2023-09-24T09:08:52.773Z,75.41
2023-09-24T09:11:55.925Z,74.73
2023-09-24T09:14:58.990Z,75.21
2023-09-24T09:18:02.707Z,75.39
2023-09-24T09:21:05.179Z,75.57
2023-09-24T09:24:22.886Z,76.74
2023-09-24T09:27:35.002Z,74.39
2023-09-24T09:30:37.365Z,75.22
2023-09-24T09:33:44.287Z,75.12
2023-09-24T09:36:46.772Z,75.65
2023-09-24T09:39:51.898Z,75.95
2023-09-24T09:42:56.716Z,77.29
2023-09-24T09:45:59.300Z,75.37
2023-09-24T09:49:11.973Z,75.00
2023-09-24T09:52:20.313Z,75.98
2023-09-24T09:55:24.413Z,76.47
2023-09-24T09:58:29.433Z,76.75
2023-09-24T10:01:33.352Z,75.57
2023-09-24T10:04:37.493Z,74.09
2023-09-24T10:07:41.959Z,75.47
2023-09-24T10:10:44.486Z,75.47
2023-09-24T10:13:53.583Z,74.85
2023-09-24T10:16:55.993Z,74.90
2023-09-24T10:20:09.803Z,73.99
2023-09-24T10:23:30.422Z,74.14
2023-09-24T10:26:50.629Z,74.08
2023-09-24T10:29:55.187Z,73.38
2023-09-24T10:32:57.807Z,74.53
2023-09-24T10:36:19.409Z,74.43
2023-09-24T10:39:21.973Z,74.73
2023-09-24T10:42:24.344Z,76.76
2023-09-24T10:45:26.999Z,74.92
2023-09-24T10:48:44.243Z,74.41
2023-09-24T10:51:59.812Z,75.01
2023-09-24T10:55:02.118Z,72.98
2023-09-24T10:58:15.122Z,74.55
2023-09-24T11:01:17.823Z,73.60
2023-09-24T11:04:30.232Z,73.70
2023-09-24T11:07:33.103Z,73.43
2023-09-24T11:10:36.126Z,73.57
2023-09-24T11:13:40.853Z,73.40
2023-09-24T11:16:43.648Z,73.07
2023-09-24T11:19:50.590Z,73.43
2023-09-24T11:23:12.817Z,71.62
2023-09-24T11:26:15.265Z,73.55
2023-09-24T11:29:17.689Z,72.26
2023-09-24T11:32:27.725Z,73.15
2023-09-24T11:35:30.291Z,72.80
2023-09-24T11:38:34.547Z,72.30
2023-09-24T11:41:37.107Z,74.06
2023-09-24T11:44:49.242Z,76.01
2023-09-24T11:47:52.491Z,74.68
2023-09-24T11:51:03.556Z,74.40
2023-09-24T11:54:06.742Z,74.74
2023-09-24T11:57:12.002Z,74.48
2023-09-24T12:00:16.109Z,72.09
2023-09-24T12:03:19.005Z,72.05
2023-09-24T12:06:22.220Z,71.70
2023-09-24T12:09:24.661Z,70.13
2023-09-24T12:12:27.114Z,70.10
2023-09-24T12:15:31.099Z,69.22
2023-09-24T12:18:33.993Z,68.80
2023-09-24T12:21:36.717Z,69.91
2023-09-24T12:24:39.640Z,68.71
2023-09-24T12:27:42.651Z,70.04
2023-09-24T12:30:46.472Z,68.63
2023-09-24T12:33:49.107Z,68.08
2023-09-24T12:36:52.081Z,65.16
2023-09-24T12:39:55.052Z,64.85
2023-09-24T12:42:57.906Z,65.81
2023-09-24T12:46:08.512Z,64.42
2023-09-24T12:49:11.308Z,65.09
2023-09-24T12:52:13.894Z,65.90
2023-09-24T12:55:17.972Z,65.01
2023-09-24T12:58:20.816Z,65.69
2023-09-24T13:01:24.473Z,64.32
2023-09-24T13:04:27.675Z,65.96
2023-09-24T13:07:31.880Z,65.03
2023-09-24T13:10:35.230Z,65.18
2023-09-24T13:13:38.402Z,64.18
2023-09-24T13:16:48.673Z,64.98
2023-09-24T13:19:52.273Z,64.31
2023-09-24T13:22:55.073Z,65.49
2023-09-24T13:25:57.906Z,63.64
2023-09-24T13:29:01.724Z,64.17
2023-09-24T13:32:05.188Z,64.51
2023-09-24T13:35:09.306Z,64.41
2023-09-24T13:38:12.869Z,64.13
2023-09-24T13:41:15.567Z,63.20
2023-09-24T13:44:18.949Z,64.04
2023-09-24T13:47:22.397Z,64.52
2023-09-24T13:50:25.392Z,64.06
2023-09-24T13:53:28.827Z,64.85
2023-09-24T13:56:32.176Z,63.03
2023-09-24T13:59:35.251Z,63.56
2023-09-24T14:02:38.776Z,63.10
2023-09-24T14:05:42.168Z,63.34
2023-09-24T14:09:04.522Z,63.09
2023-09-24T14:12:23.610Z,63.46
2023-09-24T14:15:27.512Z,62.96
2023-09-24T14:18:30.814Z,63.10
2023-09-24T14:21:34.141Z,62.35
2023-09-24T14:24:39.152Z,62.57
2023-09-24T14:27:44.655Z,64.16
2023-09-24T14:30:48.162Z,62.54
2023-09-24T14:33:53.878Z,62.08
2023-09-24T14:36:57.337Z,62.41
2023-09-24T14:40:00.851Z,64.26
2023-09-24T14:43:04.408Z,63.66
2023-09-24T14:46:12.196Z,64.37
2023-09-24T14:49:15.256Z,64.88
2023-09-24T14:52:18.124Z,64.63
2023-09-24T14:55:21.667Z,64.53
2023-09-24T14:58:25.179Z,64.43
2023-09-24T15:01:28.609Z,63.74
2023-09-24T15:04:32.125Z,64.17
2023-09-24T15:07:35.068Z,64.55
2023-09-24T15:10:41.608Z,62.92
2023-09-24T15:13:45.607Z,63.39
2023-09-24T15:16:48.816Z,64.42
2023-09-24T15:19:52.345Z,62.21
2023-09-24T15:22:55.998Z,63.81
2023-09-24T15:26:00.505Z,64.10
2023-09-24T15:29:03.513Z,63.22
2023-09-24T15:32:06.942Z,64.51
2023-09-24T15:35:11.411Z,64.71
2023-09-24T15:38:16.499Z,64.24
2023-09-24T15:41:20.985Z,63.67
2023-09-24T15:44:24.664Z,62.74
2023-09-24T15:47:27.819Z,63.36
2023-09-24T15:50:33.579Z,65.29
2023-09-24T15:53:36.709Z,62.98
2023-09-24T15:56:39.791Z,65.49
2023-09-24T15:59:43.020Z,64.74
2023-09-24T16:02:46.650Z,65.82
2023-09-24T16:05:50.014Z,65.80
2023-09-24T16:08:54.213Z,64.55
2023-09-24T16:11:57.725Z,65.24
2023-09-24T16:15:01.582Z,66.10
2023-09-24T16:18:05.268Z,66.10
2023-09-24T16:21:08.132Z,66.39
2023-09-24T16:24:11.494Z,66.10
2023-09-24T16:27:15.835Z,65.92
2023-09-24T16:30:20.029Z,67.09
2023-09-24T16:33:23.399Z,65.78
2023-09-24T16:36:27.289Z,66.39
2023-09-24T16:39:30.311Z,67.92
2023-09-24T16:42:37.976Z,66.76
2023-09-24T16:45:54.357Z,67.89
2023-09-24T16:48:57.892Z,70.52
2023-09-24T16:52:01.215Z,69.41
2023-09-24T16:55:04.363Z,70.43
2023-09-24T16:58:08.514Z,69.99
2023-09-24T17:01:19.342Z,73.06
2023-09-24T17:04:22.508Z,73.55
2023-09-24T17:07:26.235Z,73.48
2023-09-24T17:10:29.567Z,73.63
2023-09-24T17:13:33.657Z,74.12
2023-09-24T17:16:38.732Z,75.83
2023-09-24T17:19:42.149Z,74.60
2023-09-24T17:22:45.213Z,75.46
2023-09-24T17:25:48.736Z,76.60
2023-09-24T17:28:55.602Z,78.94
2023-09-24T17:31:59.710Z,78.43
2023-09-24T17:35:05.773Z,78.42
2023-09-24T17:38:09.471Z,78.24
2023-09-24T17:41:20.516Z,75.21
2023-09-24T17:44:26.678Z,75.50
2023-09-24T17:47:30.087Z,73.06
2023-09-24T17:50:33.373Z,74.23
2023-09-24T17:53:43.614Z,75.18
2023-09-24T17:56:48.409Z,72.44
2023-09-24T17:59:52.305Z,75.34
2023-09-24T18:02:56.377Z,74.39
2023-09-24T18:06:03.096Z,75.49
2023-09-24T18:09:10.450Z,75.84
2023-09-24T18:12:13.977Z,75.99
2023-09-24T18:15:17.383Z,76.35
2023-09-24T18:18:24.143Z,75.42
2023-09-24T18:21:27.856Z,76.42
2023-09-24T18:24:35.201Z,75.68
2023-09-24T18:27:40.013Z,75.98
2023-09-24T18:30:44.176Z,76.41
2023-09-24T18:33:48.332Z,77.40
2023-09-24T18:36:53.916Z,77.96
2023-09-24T18:40:02.204Z,79.85
2023-09-24T18:43:06.873Z,80.48
2023-09-24T18:46:11.479Z,80.87
2023-09-24T18:49:17.748Z,81.17
2023-09-24T18:52:23.253Z,80.50
2023-09-24T18:55:28.132Z,74.61
2023-09-24T18:58:34.200Z,71.38
2023-09-24T19:01:38.222Z,72.74
2023-09-24T19:04:46.176Z,67.20
2023-09-24T19:07:50.944Z,65.61
2023-09-24T19:10:55.284Z,64.98
2023-09-24T19:13:59.165Z,64.34
2023-09-24T19:17:04.396Z,64.90
2023-09-24T19:20:09.713Z,63.71
2023-09-24T19:23:14.640Z,63.85
2023-09-24T19:26:20.573Z,65.21
2023-09-24T19:29:28.562Z,64.55
2023-09-24T19:32:32.366Z,65.18
2023-09-24T19:35:38.449Z,65.68
2023-09-24T19:38:42.365Z,66.67
2023-09-24T19:41:47.680Z,68.72
2023-09-24T19:44:52.675Z,69.25
2023-09-24T19:47:56.831Z,69.56
2023-09-24T19:51:02.223Z,69.87
2023-09-24T19:54:06.948Z,72.07
2023-09-24T19:57:12.435Z,72.26
2023-09-24T20:00:17.712Z,70.62
2023-09-24T20:03:23.309Z,70.52
2023-09-24T20:06:26.723Z,71.58
2023-09-24T20:09:32.581Z,74.70
2023-09-24T20:12:36.096Z,75.67
2023-09-24T20:15:39.470Z,76.96
2023-09-24T20:18:43.420Z,77.25
2023-09-24T20:21:46.994Z,75.31
2023-09-24T20:24:52.127Z,74.98
2023-09-24T20:27:56.010Z,73.46
2023-09-24T20:31:01.138Z,68.20
2023-09-24T20:34:05.245Z,69.38
2023-09-24T20:37:08.720Z,72.13
2023-09-24T20:40:12.545Z,71.27
2023-09-24T20:43:16.806Z,67.12
2023-09-24T20:46:20.888Z,68.88
2023-09-24T20:49:23.980Z,69.52
2023-09-24T20:52:26.653Z,70.31
2023-09-24T20:55:29.365Z,70.14
2023-09-24T20:58:32.104Z,69.24
2023-09-24T21:01:34.477Z,70.22
2023-09-24T21:04:37.811Z,70.37
2023-09-24T21:07:42.100Z,70.46
2023-09-24T21:10:44.458Z,70.87
2023-09-24T21:13:46.791Z,70.76
2023-09-24T21:16:49.259Z,71.59
2023-09-24T21:19:51.660Z,71.93
2023-09-24T21:22:53.926Z,72.97
2023-09-24T21:26:06.885Z,72.09
2023-09-24T21:29:09.444Z,73.83
2023-09-24T21:32:11.837Z,74.61
2023-09-24T21:35:14.148Z,73.46
2023-09-24T21:38:17.564Z,73.37
2023-09-24T21:41:20.195Z,73.92
2023-09-24T21:44:22.537Z,74.38
2023-09-24T21:47:25.050Z,73.42
2023-09-24T21:50:27.385Z,73.92
2023-09-24T21:53:30.343Z,74.21
2023-09-24T21:56:32.713Z,73.90
2023-09-24T21:59:35.118Z,74.54
2023-09-24T22:02:37.728Z,73.43
2023-09-24T22:05:44.020Z,73.95
2023-09-24T22:08:46.373Z,74.11
2023-09-24T22:11:49.044Z,74.08
2023-09-24T22:14:51.358Z,74.35
2023-09-24T22:17:53.678Z,74.99
2023-09-24T22:20:57.226Z,74.55
2023-09-24T22:24:00.980Z,74.70
2023-09-24T22:27:03.700Z,74.20
2023-09-24T22:30:06.946Z,74.08
2023-09-24T22:33:10.254Z,73.90
2023-09-24T22:36:20.187Z,74.26
2023-09-24T22:39:22.623Z,74.97
2023-09-24T22:42:25.143Z,75.18
2023-09-24T22:45:27.688Z,75.52
2023-09-24T22:48:30.133Z,75.20
2023-09-24T22:51:33.130Z,75.91
2023-09-24T22:54:36.988Z,76.06
2023-09-24T22:57:39.925Z,76.42
2023-09-24T23:00:42.686Z,76.54
2023-09-24T23:03:45.345Z,76.02
2023-09-24T23:06:49.688Z,75.15
2023-09-24T23:09:52.058Z,75.96
2023-09-24T23:12:54.382Z,76.06
2023-09-24T23:15:56.965Z,74.38
2023-09-24T23:19:00.090Z,73.74
2023-09-24T23:22:02.436Z,74.17
2023-09-24T23:25:05.152Z,74.99
2023-09-24T23:28:07.991Z,77.10
2023-09-24T23:31:10.857Z,77.60
2023-09-24T23:34:14.141Z,76.84
2023-09-24T23:37:16.580Z,77.07
2023-09-24T23:40:24.400Z,77.25
2023-09-24T23:43:27.484Z,76.08
2023-09-24T23:46:30.012Z,75.77
2023-09-24T23:49:32.488Z,76.30
2023-09-24T23:52:34.939Z,76.35
2023-09-24T23:55:37.414Z,77.30
2023-09-24T23:58:39.918Z,77.07
